Time;durP1;ratioP1;P1;durP2;ratioP2;P2;SDS_P1;SDS_P2;PMS_P1;PMS_P2;Temp;Humidity;BMP_temperature;BMP_pressure;BME280_temperature;BME280_humidity;BME280_pressure;Samples;Min_cycle;Max_cycle;Signal;HPM_P1;HPM_P2
2024/02/17 00:05:36;;;;;;;31.67;20.73;;;5.00;99.90;;;;;;5570459;25;21197;-85
2024/02/17 00:35:51;;;;;;;31.37;20.70;;;4.70;99.90;;;;;;5573248;24;20438;-83
2024/02/17 01:01:29;;;;;;;32.90;21.63;;;4.50;99.90;;;;;;5626167;24;20765;-83
2024/02/17 01:42:18;;;;;;;34.07;22.03;;;4.30;99.90;;;;;;5690981;24;20578;-84
2024/02/17 02:02:31;;;;;;;34.10;22.80;;;4.30;99.90;;;;;;5682321;24;20210;-83
2024/02/17 03:43:34;;;;;;;25.10;18.63;;;6.90;99.90;;;;;;5655683;24;20340;-84
2024/02/17 04:09:20;;;;;;;23.03;16.53;;;7.20;99.90;;;;;;5744848;24;20406;-83
2024/02/17 04:39:41;;;;;;;25.53;18.40;;;6.90;99.90;;;;;;5793255;24;20599;-84
2024/02/17 04:59:36;;;;;;;27.63;19.93;;;6.80;99.90;;;;;;5651451;24;20566;-83
2024/02/17 06:00:31;;;;;;;21.67;15.33;;;8.50;99.90;;;;;;5551853;25;20330;-85
2024/02/17 06:40:56;;;;;;;29.60;20.20;;;9.00;99.90;;;;;;5701780;24;20273;-85
2024/02/17 07:01:25;;;;;;;29.37;22.13;;;9.10;99.90;;;;;;5736478;24;20604;-84
2024/02/17 07:21:48;;;;;;;30.23;22.20;;;9.20;99.90;;;;;;5643337;24;20179;-84
2024/02/17 07:52:12;;;;;;;30.90;22.63;;;9.30;99.90;;;;;;5728959;24;20189;-83
2024/02/17 08:17:49;;;;;;;30.60;22.30;;;9.60;99.90;;;;;;5881011;23;20496;-83
2024/02/17 08:57:52;;;;;;;30.77;21.97;;;10.10;99.90;;;;;;5935087;23;20649;-88
2024/02/17 09:23:40;;;;;;;27.30;20.43;;;10.20;99.90;;;;;;5876297;24;20500;-85
2024/02/17 09:48:29;;;;;;;25.10;19.33;;;10.00;99.90;;;;;;5883586;24;20616;-85
2024/02/17 10:14:15;;;;;;;30.30;23.13;;;10.10;99.90;;;;;;6006116;23;20704;-89
2024/02/17 10:39:11;;;;;;;35.70;26.93;;;10.20;99.90;;;;;;5844522;24;20252;-88
2024/02/17 11:05:07;;;;;;;31.77;23.10;;;10.30;99.90;;;;;;5717816;24;20191;-87
2024/02/17 11:35:40;;;;;;;25.03;20.83;;;11.30;99.90;;;;;;5801326;24;20675;-87
2024/02/17 12:00:58;;;;;;;21.20;17.10;;;11.50;99.90;;;;;;5673210;24;20195;-85
2024/02/17 12:26:02;;;;;;;15.10;13.00;;;11.90;99.90;;;;;;5558483;25;20515;-87
2024/02/17 12:46:30;;;;;;;15.30;12.20;;;11.40;99.90;;;;;;5536955;25;20274;-86
2024/02/17 13:11:56;;;;;;;7.70;6.90;;;11.50;99.90;;;;;;5553656;25;20207;-86
2024/02/17 14:02:20;;;;;;;5.73;5.13;;;11.20;99.90;;;;;;5573613;24;20604;-86
2024/02/17 14:22:51;;;;;;;7.43;6.10;;;10.90;99.90;;;;;;5917470;23;20162;-86
2024/02/17 14:48:07;;;;;;;9.00;5.97;;;10.50;99.90;;;;;;5884396;23;20226;-87
2024/02/17 15:08:21;;;;;;;4.30;3.87;;;10.70;99.90;;;;;;5607639;24;20200;-85
2024/02/17 15:33:58;;;;;;;3.47;3.17;;;9.90;99.90;;;;;;5639858;24;20253;-86
2024/02/17 15:59:22;;;;;;;2.97;2.50;;;8.90;99.90;;;;;;5753792;24;20316;-85
2024/02/17 16:34:44;;;;;;;2.70;2.30;;;8.70;99.90;;;;;;5929287;23;20349;-84
2024/02/17 17:05:00;;;;;;;1.20;1.10;;;8.40;95.60;;;;;;5785466;23;20542;-85
2024/02/17 17:35:16;;;;;;;1.37;1.27;;;8.00;96.40;;;;;;5860653;24;20596;-86
2024/02/17 18:56:48;;;;;;;2.10;1.90;;;7.20;99.90;;;;;;4949053;28;20252;-84
2024/02/17 19:26:42;;;;;;;2.50;2.30;;;7.10;99.90;;;;;;4802374;29;20357;-85
2024/02/17 19:47:15;;;;;;;2.70;2.10;;;7.00;99.90;;;;;;4742147;29;20236;-86
2024/02/17 20:47:49;;;;;;;3.43;3.13;;;6.50;99.90;;;;;;4657585;29;20307;-84
2024/02/17 21:08:25;;;;;;;2.60;2.40;;;6.00;99.90;;;;;;4629857;29;20251;-87
2024/02/17 21:39:09;;;;;;;2.30;2.10;;;5.00;99.90;;;;;;4852391;28;20232;-84
2024/02/17 21:43:30;;;;;;;3.50;2.40;;;5.10;99.90;;;;;;4762129;29;21326;-84
2024/02/17 22:08:51;;;;;;;2.83;2.33;;;4.90;99.90;;;;;;4724937;29;20219;-84
2024/02/17 22:39:54;;;;;;;2.97;2.57;;;4.60;97.30;;;;;;4938566;28;20191;-85
2024/02/17 23:05:16;;;;;;;1.87;1.77;;;4.20;96.80;;;;;;4836315;29;20663;-84
2024/02/17 23:30:43;;;;;;;2.33;1.90;;;4.10;97.30;;;;;;4844777;29;20192;-87
2024/02/17 23:35:03;;;;;;;2.07;1.97;;;4.10;97.10;;;;;;4776264;29;20254;-84
